ANACAPA ISLAND CA US current weather conditions

sailwx.info

Wind from 330 at 6 knots gusting 9

Air temperature 17.8° C
Dewpoint 17.5° C

Last reported at 2015-Jun-30 15:23 UTC.
Time now 2015-Jun-30 16:51 UTC

Location: N 34°01' W 119°22'.
View on Google Maps.

See reports from other nearby stations

  
Tides and Currents Weather Stations Pressure Air Temp Water Temp Dewpoint Dewpoint Depression Visibility Wind Speed Wind Dir Waves Ship Positions
date/time (UTC)wind fromknots sea level pressurealtimeterstation pressurevisibilityair tempwater tempwave heightnotes
2015-Jun-30 15:23 330 6 gusting 9 17.8
2015-Jun-30 14:23 330 6 gusting 10 16.7
2015-Jun-30 13:23 332 8 gusting 11 16.7
2015-Jun-30 12:23 342 7 gusting 10 16.7
2015-Jun-30 11:23 336 6 gusting 10 16.7
2015-Jun-30 10:23 337 6 gusting 10 16.7
2015-Jun-30 09:23 343 6 gusting 10 16.7
2015-Jun-30 08:23 341 7 gusting 11 16.7
2015-Jun-30 07:23 345 6 gusting 11 17.2
2015-Jun-30 06:23 337 7 gusting 12 17.2
2015-Jun-30 05:23 345 6 gusting 12 17.8
2015-Jun-30 04:23 328 7 gusting 13 17.2
2015-Jun-30 03:23 330 7 gusting 13 17.2
2015-Jun-30 02:23 307 6 gusting 14 17.2
2015-Jun-30 01:23 305 9 gusting 13 18.3
2015-Jun-30 00:23 302 9 gusting 14 19.4
2015-Jun-29 23:23 306 10 gusting 15 19.4
2015-Jun-29 22:23 300 7 gusting 13 20.0
2015-Jun-29 21:23 306 8 gusting 12 20.6
2015-Jun-29 20:23 300 6 gusting 10 20.6
2015-Jun-29 19:23 332 6 gusting 11 19.4
2015-Jun-29 18:23 333 6 gusting 10 18.9
2015-Jun-29 17:23 347 3 gusting 5 20.0
2015-Jun-29 16:23 146 0 gusting 6 21.1
2015-Jun-29 15:23 055 2 gusting 6 19.4
2015-Jun-29 14:23 300 3 gusting 7 18.3
2015-Jun-29 13:23 284 4 gusting 9 17.2
2015-Jun-29 12:23 272 3 gusting 9 17.2
2015-Jun-29 11:23 318 4 gusting 8 17.2
2015-Jun-29 10:23 290 2 gusting 6 17.8
2015-Jun-29 09:23 277 6 gusting 20 18.3
2015-Jun-29 08:23 329 15 gusting 21 17.8
2015-Jun-29 07:23 340 12 gusting 20 17.8
2015-Jun-29 06:23 316 9 gusting 19 18.9
2015-Jun-29 05:23 305 11 gusting 17 18.9
2015-Jun-29 04:23 297 9 gusting 18 18.9
2015-Jun-29 03:23 298 9 gusting 16 18.3
2015-Jun-29 02:23 299 9 gusting 18 19.4
2015-Jun-29 01:23 298 11 gusting 21 19.4
2015-Jun-29 00:23 304 12 gusting 23 20.0
2015-Jun-28 23:23 296 13 gusting 21 18.9
2015-Jun-28 22:23 303 14 gusting 23 18.3
2015-Jun-28 21:23 303 11 gusting 18 19.4
2015-Jun-28 20:23 300 7 gusting 13 20.0
2015-Jun-28 19:23 306 5 gusting 13 21.1
2015-Jun-28 18:23 284 13 gusting 20 20.0
2015-Jun-28 17:23 305 11 gusting 21 17.8
2015-Jun-28 16:23 344 13 gusting 19 17.2